sensor_id;sensor_type;location;lat;lon;timestamp;P1;durP1;ratioP1;P2;durP2;ratioP2
49758;SDS011;35654;46.080;11.118;2022-12-07T00:01:22;14.53;;;7.00;;
49758;SDS011;35654;46.080;11.118;2022-12-07T00:03:51;16.30;;;7.18;;
49758;SDS011;35654;46.080;11.118;2022-12-07T00:06:17;16.05;;;7.18;;
49758;SDS011;35654;46.080;11.118;2022-12-07T00:08:44;13.50;;;7.10;;
49758;SDS011;35654;46.080;11.118;2022-12-07T00:11:12;14.55;;;6.57;;
49758;SDS011;35654;46.080;11.118;2022-12-07T00:13:39;14.65;;;6.43;;
49758;SDS011;35654;46.080;11.118;2022-12-07T00:16:06;14.97;;;7.00;;
49758;SDS011;35654;46.080;11.118;2022-12-07T00:18:36;13.82;;;7.25;;
49758;SDS011;35654;46.080;11.118;2022-12-07T00:21:03;14.57;;;6.80;;
49758;SDS011;35654;46.080;11.118;2022-12-07T00:23:48;14.55;;;6.90;;
49758;SDS011;35654;46.080;11.118;2022-12-07T00:31:11;17.02;;;6.90;;
49758;SDS011;35654;46.080;11.118;2022-12-07T00:33:37;15.20;;;6.97;;
49758;SDS011;35654;46.080;11.118;2022-12-07T00:36:04;13.50;;;6.20;;
49758;SDS011;35654;46.080;11.118;2022-12-07T00:38:32;15.90;;;6.60;;
49758;SDS011;35654;46.080;11.118;2022-12-07T00:41:00;13.10;;;6.63;;
49758;SDS011;35654;46.080;11.118;2022-12-07T00:43:27;14.40;;;6.05;;
49758;SDS011;35654;46.080;11.118;2022-12-07T00:45:53;15.67;;;6.60;;
49758;SDS011;35654;46.080;11.118;2022-12-07T00:48:19;13.68;;;6.88;;
49758;SDS011;35654;46.080;11.118;2022-12-07T00:50:45;13.93;;;6.55;;
49758;SDS011;35654;46.080;11.118;2022-12-07T00:53:11;13.07;;;6.50;;
49758;SDS011;35654;46.080;11.118;2022-12-07T00:55:37;13.33;;;6.63;;
49758;SDS011;35654;46.080;11.118;2022-12-07T00:58:04;11.70;;;6.53;;
49758;SDS011;35654;46.080;11.118;2022-12-07T01:02:59;12.93;;;6.40;;
49758;SDS011;35654;46.080;11.118;2022-12-07T01:07:52;13.60;;;6.03;;
49758;SDS011;35654;46.080;11.118;2022-12-07T01:10:18;17.25;;;7.00;;
49758;SDS011;35654;46.080;11.118;2022-12-07T01:12:45;15.27;;;7.13;;
49758;SDS011;35654;46.080;11.118;2022-12-07T01:15:12;12.98;;;6.63;;
49758;SDS011;35654;46.080;11.118;2022-12-07T01:20:06;12.70;;;5.57;;
49758;SDS011;35654;46.080;11.118;2022-12-07T01:22:37;10.77;;;6.20;;
49758;SDS011;35654;46.080;11.118;2022-12-07T01:25:05;14.02;;;6.05;;
49758;SDS011;35654;46.080;11.118;2022-12-07T01:27:33;10.85;;;5.95;;
49758;SDS011;35654;46.080;11.118;2022-12-07T01:30:01;11.80;;;6.53;;
49758;SDS011;35654;46.080;11.118;2022-12-07T01:32:29;13.00;;;6.63;;
49758;SDS011;35654;46.080;11.118;2022-12-07T01:34:55;14.10;;;6.30;;
49758;SDS011;35654;46.080;11.118;2022-12-07T01:37:22;14.30;;;6.63;;
49758;SDS011;35654;46.080;11.118;2022-12-07T01:42:16;13.23;;;6.53;;
49758;SDS011;35654;46.080;11.118;2022-12-07T01:47:50;12.02;;;5.95;;
49758;SDS011;35654;46.080;11.118;2022-12-07T01:50:20;14.68;;;6.70;;
49758;SDS011;35654;46.080;11.118;2022-12-07T01:52:49;12.13;;;6.28;;
49758;SDS011;35654;46.080;11.118;2022-12-07T01:55:18;11.57;;;6.05;;
49758;SDS011;35654;46.080;11.118;2022-12-07T01:57:47;12.35;;;6.13;;
49758;SDS011;35654;46.080;11.118;2022-12-07T02:00:16;13.23;;;6.03;;
49758;SDS011;35654;46.080;11.118;2022-12-07T02:02:51;11.20;;;6.03;;
49758;SDS011;35654;46.080;11.118;2022-12-07T02:05:22;13.93;;;6.00;;
49758;SDS011;35654;46.080;11.118;2022-12-07T02:07:51;12.93;;;5.85;;
49758;SDS011;35654;46.080;11.118;2022-12-07T02:10:27;14.32;;;6.43;;
49758;SDS011;35654;46.080;11.118;2022-12-07T02:12:57;10.77;;;5.53;;
49758;SDS011;35654;46.080;11.118;2022-12-07T02:15:28;15.80;;;5.68;;
49758;SDS011;35654;46.080;11.118;2022-12-07T02:18:09;12.55;;;5.75;;
49758;SDS011;35654;46.080;11.118;2022-12-07T02:20:45;10.50;;;5.60;;
49758;SDS011;35654;46.080;11.118;2022-12-07T02:23:31;12.82;;;6.00;;
49758;SDS011;35654;46.080;11.118;2022-12-07T02:29:07;13.27;;;5.85;;
49758;SDS011;35654;46.080;11.118;2022-12-07T02:31:32;10.25;;;5.45;;
49758;SDS011;35654;46.080;11.118;2022-12-07T02:34:03;10.50;;;5.53;;
49758;SDS011;35654;46.080;11.118;2022-12-07T02:36:38;11.32;;;5.50;;
49758;SDS011;35654;46.080;11.118;2022-12-07T02:39:10;12.68;;;6.05;;
49758;SDS011;35654;46.080;11.118;2022-12-07T02:42:01;12.35;;;5.53;;
49758;SDS011;35654;46.080;11.118;2022-12-07T02:44:32;12.50;;;5.95;;
49758;SDS011;35654;46.080;11.118;2022-12-07T02:47:02;11.90;;;5.38;;
49758;SDS011;35654;46.080;11.118;2022-12-07T02:49:32;13.30;;;5.47;;
49758;SDS011;35654;46.080;11.118;2022-12-07T02:51:58;11.05;;;5.38;;
49758;SDS011;35654;46.080;11.118;2022-12-07T02:54:24;9.53;;;5.17;;
49758;SDS011;35654;46.080;11.118;2022-12-07T02:56:52;12.40;;;5.97;;
49758;SDS011;35654;46.080;11.118;2022-12-07T03:05:15;15.45;;;5.47;;
49758;SDS011;35654;46.080;11.118;2022-12-07T03:08:02;12.05;;;5.15;;
49758;SDS011;35654;46.080;11.118;2022-12-07T03:10:42;14.63;;;5.72;;
49758;SDS011;35654;46.080;11.118;2022-12-07T03:18:56;9.93;;;5.07;;
49758;SDS011;35654;46.080;11.118;2022-12-07T03:21:25;13.30;;;5.57;;
49758;SDS011;35654;46.080;11.118;2022-12-07T03:23:56;10.02;;;5.43;;
49758;SDS011;35654;46.080;11.118;2022-12-07T03:26:25;10.32;;;5.68;;
49758;SDS011;35654;46.080;11.118;2022-12-07T03:28:57;12.88;;;6.78;;
49758;SDS011;35654;46.080;11.118;2022-12-07T03:31:31;11.70;;;6.88;;
49758;SDS011;35654;46.080;11.118;2022-12-07T03:34:02;11.90;;;5.88;;
49758;SDS011;35654;46.080;11.118;2022-12-07T03:36:56;11.90;;;5.53;;
49758;SDS011;35654;46.080;11.118;2022-12-07T03:42:17;10.90;;;5.53;;
49758;SDS011;35654;46.080;11.118;2022-12-07T03:44:42;13.67;;;5.53;;
49758;SDS011;35654;46.080;11.118;2022-12-07T03:47:13;13.17;;;6.20;;
49758;SDS011;35654;46.080;11.118;2022-12-07T03:49:44;11.65;;;5.80;;
49758;SDS011;35654;46.080;11.118;2022-12-07T03:52:18;12.93;;;5.43;;
49758;SDS011;35654;46.080;11.118;2022-12-07T03:57:39;11.25;;;5.40;;
49758;SDS011;35654;46.080;11.118;2022-12-07T04:00:08;11.23;;;5.40;;
49758;SDS011;35654;46.080;11.118;2022-12-07T04:02:35;13.80;;;6.47;;
49758;SDS011;35654;46.080;11.118;2022-12-07T04:05:01;12.13;;;6.07;;
49758;SDS011;35654;46.080;11.118;2022-12-07T04:07:26;10.90;;;6.07;;
49758;SDS011;35654;46.080;11.118;2022-12-07T04:09:52;11.50;;;6.10;;
49758;SDS011;35654;46.080;11.118;2022-12-07T04:12:20;14.45;;;6.20;;
49758;SDS011;35654;46.080;11.118;2022-12-07T04:14:46;12.50;;;5.90;;
49758;SDS011;35654;46.080;11.118;2022-12-07T04:17:11;14.17;;;6.40;;
49758;SDS011;35654;46.080;11.118;2022-12-07T04:19:37;12.43;;;6.27;;
49758;SDS011;35654;46.080;11.118;2022-12-07T04:22:03;11.10;;;5.77;;
49758;SDS011;35654;46.080;11.118;2022-12-07T04:24:29;13.00;;;5.72;;
49758;SDS011;35654;46.080;11.118;2022-12-07T04:26:55;11.93;;;5.83;;
49758;SDS011;35654;46.080;11.118;2022-12-07T04:29:21;12.80;;;5.67;;
49758;SDS011;35654;46.080;11.118;2022-12-07T04:31:47;12.20;;;5.15;;
49758;SDS011;35654;46.080;11.118;2022-12-07T04:34:13;11.07;;;5.63;;
49758;SDS011;35654;46.080;11.118;2022-12-07T04:36:40;12.13;;;5.63;;
49758;SDS011;35654;46.080;11.118;2022-12-07T04:39:06;11.30;;;5.43;;
49758;SDS011;35654;46.080;11.118;2022-12-07T04:41:33;15.50;;;5.95;;
49758;SDS011;35654;46.080;11.118;2022-12-07T04:44:00;13.83;;;6.10;;
49758;SDS011;35654;46.080;11.118;2022-12-07T04:46:29;12.35;;;5.78;;
49758;SDS011;35654;46.080;11.118;2022-12-07T04:48:56;17.92;;;6.97;;
49758;SDS011;35654;46.080;11.118;2022-12-07T04:51:23;18.77;;;7.47;;
49758;SDS011;35654;46.080;11.118;2022-12-07T04:53:50;18.27;;;8.10;;
49758;SDS011;35654;46.080;11.118;2022-12-07T04:56:16;23.45;;;9.82;;
49758;SDS011;35654;46.080;11.118;2022-12-07T04:58:42;23.93;;;9.27;;
49758;SDS011;35654;46.080;11.118;2022-12-07T05:01:09;13.95;;;6.10;;
49758;SDS011;35654;46.080;11.118;2022-12-07T05:03:35;12.60;;;6.27;;
49758;SDS011;35654;46.080;11.118;2022-12-07T05:06:01;11.38;;;5.60;;
49758;SDS011;35654;46.080;11.118;2022-12-07T05:08:27;11.43;;;5.77;;
49758;SDS011;35654;46.080;11.118;2022-12-07T05:10:52;13.03;;;6.30;;
49758;SDS011;35654;46.080;11.118;2022-12-07T05:13:18;12.27;;;5.80;;
49758;SDS011;35654;46.080;11.118;2022-12-07T05:15:43;15.93;;;5.40;;
49758;SDS011;35654;46.080;11.118;2022-12-07T05:18:09;11.33;;;5.43;;
49758;SDS011;35654;46.080;11.118;2022-12-07T05:20:37;13.65;;;6.10;;
49758;SDS011;35654;46.080;11.118;2022-12-07T05:23:03;13.63;;;5.18;;
49758;SDS011;35654;46.080;11.118;2022-12-07T05:25:28;14.83;;;5.87;;
49758;SDS011;35654;46.080;11.118;2022-12-07T05:27:54;11.00;;;5.17;;
49758;SDS011;35654;46.080;11.118;2022-12-07T05:30:21;11.07;;;5.47;;
49758;SDS011;35654;46.080;11.118;2022-12-07T05:32:47;11.82;;;5.40;;
49758;SDS011;35654;46.080;11.118;2022-12-07T05:35:12;11.27;;;5.27;;
49758;SDS011;35654;46.080;11.118;2022-12-07T05:37:38;11.17;;;5.50;;
49758;SDS011;35654;46.080;11.118;2022-12-07T05:40:04;10.50;;;5.30;;
49758;SDS011;35654;46.080;11.118;2022-12-07T05:42:30;10.68;;;5.72;;
49758;SDS011;35654;46.080;11.118;2022-12-07T05:44:56;15.00;;;6.27;;
49758;SDS011;35654;46.080;11.118;2022-12-07T05:47:21;11.47;;;5.57;;
49758;SDS011;35654;46.080;11.118;2022-12-07T05:49:46;11.67;;;5.70;;
49758;SDS011;35654;46.080;11.118;2022-12-07T05:52:12;9.93;;;5.47;;
49758;SDS011;35654;46.080;11.118;2022-12-07T05:54:37;10.93;;;5.40;;
49758;SDS011;35654;46.080;11.118;2022-12-07T05:57:03;9.43;;;4.97;;
49758;SDS011;35654;46.080;11.118;2022-12-07T05:59:28;10.73;;;4.80;;
49758;SDS011;35654;46.080;11.118;2022-12-07T06:02:01;11.67;;;5.53;;
49758;SDS011;35654;46.080;11.118;2022-12-07T06:04:30;14.15;;;5.47;;
49758;SDS011;35654;46.080;11.118;2022-12-07T06:06:57;13.85;;;5.72;;
49758;SDS011;35654;46.080;11.118;2022-12-07T06:09:23;12.83;;;5.90;;
49758;SDS011;35654;46.080;11.118;2022-12-07T06:14:34;14.15;;;6.45;;
49758;SDS011;35654;46.080;11.118;2022-12-07T06:16:59;28.13;;;8.57;;
49758;SDS011;35654;46.080;11.118;2022-12-07T06:19:25;15.60;;;6.53;;
49758;SDS011;35654;46.080;11.118;2022-12-07T06:21:50;15.40;;;6.47;;
49758;SDS011;35654;46.080;11.118;2022-12-07T06:24:16;22.00;;;7.30;;
49758;SDS011;35654;46.080;11.118;2022-12-07T06:26:43;45.00;;;10.07;;
49758;SDS011;35654;46.080;11.118;2022-12-07T06:29:09;23.00;;;9.07;;
49758;SDS011;35654;46.080;11.118;2022-12-07T06:31:35;29.52;;;10.52;;
49758;SDS011;35654;46.080;11.118;2022-12-07T06:34:03;22.52;;;9.65;;
49758;SDS011;35654;46.080;11.118;2022-12-07T06:36:30;19.30;;;8.50;;
49758;SDS011;35654;46.080;11.118;2022-12-07T06:38:56;19.07;;;7.50;;
49758;SDS011;35654;46.080;11.118;2022-12-07T06:41:21;18.13;;;7.00;;
49758;SDS011;35654;46.080;11.118;2022-12-07T06:43:47;17.67;;;8.20;;
49758;SDS011;35654;46.080;11.118;2022-12-07T06:46:13;20.73;;;7.13;;
49758;SDS011;35654;46.080;11.118;2022-12-07T06:51:05;17.33;;;7.28;;
49758;SDS011;35654;46.080;11.118;2022-12-07T06:53:31;15.47;;;6.13;;
49758;SDS011;35654;46.080;11.118;2022-12-07T06:55:56;19.33;;;6.63;;
49758;SDS011;35654;46.080;11.118;2022-12-07T06:58:22;14.43;;;6.53;;
49758;SDS011;35654;46.080;11.118;2022-12-07T07:00:48;15.77;;;6.63;;
49758;SDS011;35654;46.080;11.118;2022-12-07T07:05:40;16.42;;;6.28;;
49758;SDS011;35654;46.080;11.118;2022-12-07T07:08:07;16.58;;;6.97;;
49758;SDS011;35654;46.080;11.118;2022-12-07T07:10:32;14.52;;;6.32;;
49758;SDS011;35654;46.080;11.118;2022-12-07T07:12:58;16.10;;;7.57;;
49758;SDS011;35654;46.080;11.118;2022-12-07T07:15:23;26.17;;;14.53;;
49758;SDS011;35654;46.080;11.118;2022-12-07T07:17:49;30.40;;;13.87;;
49758;SDS011;35654;46.080;11.118;2022-12-07T07:20:14;53.97;;;14.17;;
49758;SDS011;35654;46.080;11.118;2022-12-07T07:22:40;46.93;;;11.40;;
49758;SDS011;35654;46.080;11.118;2022-12-07T07:25:06;15.60;;;7.53;;
49758;SDS011;35654;46.080;11.118;2022-12-07T07:27:31;27.23;;;7.90;;
49758;SDS011;35654;46.080;11.118;2022-12-07T07:29:57;24.20;;;8.37;;
49758;SDS011;35654;46.080;11.118;2022-12-07T07:32:22;18.63;;;7.23;;
49758;SDS011;35654;46.080;11.118;2022-12-07T07:34:48;17.53;;;6.57;;
49758;SDS011;35654;46.080;11.118;2022-12-07T07:37:13;36.77;;;7.10;;
49758;SDS011;35654;46.080;11.118;2022-12-07T07:39:39;18.83;;;6.77;;
49758;SDS011;35654;46.080;11.118;2022-12-07T07:42:04;26.27;;;7.17;;
49758;SDS011;35654;46.080;11.118;2022-12-07T07:44:30;20.13;;;6.20;;
49758;SDS011;35654;46.080;11.118;2022-12-07T07:46:56;11.30;;;5.80;;
49758;SDS011;35654;46.080;11.118;2022-12-07T07:49:21;18.40;;;6.13;;
49758;SDS011;35654;46.080;11.118;2022-12-07T07:51:47;12.43;;;6.13;;
49758;SDS011;35654;46.080;11.118;2022-12-07T07:54:12;24.60;;;7.70;;
49758;SDS011;35654;46.080;11.118;2022-12-07T07:56:37;16.17;;;8.00;;
49758;SDS011;35654;46.080;11.118;2022-12-07T07:59:03;21.70;;;8.87;;
49758;SDS011;35654;46.080;11.118;2022-12-07T08:01:28;20.60;;;8.60;;
49758;SDS011;35654;46.080;11.118;2022-12-07T08:03:54;23.77;;;8.30;;
49758;SDS011;35654;46.080;11.118;2022-12-07T08:06:19;28.03;;;11.10;;
49758;SDS011;35654;46.080;11.118;2022-12-07T08:08:45;16.63;;;7.67;;
49758;SDS011;35654;46.080;11.118;2022-12-07T08:11:10;20.57;;;7.83;;
49758;SDS011;35654;46.080;11.118;2022-12-07T08:13:36;16.80;;;8.10;;
49758;SDS011;35654;46.080;11.118;2022-12-07T08:16:03;16.42;;;7.43;;
49758;SDS011;35654;46.080;11.118;2022-12-07T08:18:29;17.75;;;8.32;;
49758;SDS011;35654;46.080;11.118;2022-12-07T08:20:58;19.07;;;7.97;;
49758;SDS011;35654;46.080;11.118;2022-12-07T08:23:25;17.40;;;8.32;;
49758;SDS011;35654;46.080;11.118;2022-12-07T08:25:51;18.53;;;7.73;;
49758;SDS011;35654;46.080;11.118;2022-12-07T08:28:17;13.43;;;6.60;;
49758;SDS011;35654;46.080;11.118;2022-12-07T08:30:42;9.57;;;5.40;;
49758;SDS011;35654;46.080;11.118;2022-12-07T08:33:08;13.33;;;5.50;;
49758;SDS011;35654;46.080;11.118;2022-12-07T08:35:35;27.00;;;6.00;;
49758;SDS011;35654;46.080;11.118;2022-12-07T08:38:00;24.17;;;6.60;;
49758;SDS011;35654;46.080;11.118;2022-12-07T08:40:27;11.77;;;6.15;;
49758;SDS011;35654;46.080;11.118;2022-12-07T08:42:53;11.53;;;4.80;;
49758;SDS011;35654;46.080;11.118;2022-12-07T08:45:18;9.33;;;5.10;;
49758;SDS011;35654;46.080;11.118;2022-12-07T08:47:47;10.10;;;4.72;;
49758;SDS011;35654;46.080;11.118;2022-12-07T08:50:21;17.00;;;5.38;;
49758;SDS011;35654;46.080;11.118;2022-12-07T08:52:49;12.38;;;5.45;;
49758;SDS011;35654;46.080;11.118;2022-12-07T08:55:19;28.15;;;15.82;;
49758;SDS011;35654;46.080;11.118;2022-12-07T09:00:12;14.90;;;5.38;;
49758;SDS011;35654;46.080;11.118;2022-12-07T09:02:38;20.05;;;7.65;;
49758;SDS011;35654;46.080;11.118;2022-12-07T09:05:04;14.00;;;6.33;;
49758;SDS011;35654;46.080;11.118;2022-12-07T09:07:30;12.00;;;5.93;;
49758;SDS011;35654;46.080;11.118;2022-12-07T09:09:58;16.48;;;7.18;;
49758;SDS011;35654;46.080;11.118;2022-12-07T09:12:24;14.73;;;6.63;;
49758;SDS011;35654;46.080;11.118;2022-12-07T09:14:49;14.47;;;6.20;;
49758;SDS011;35654;46.080;11.118;2022-12-07T09:17:15;16.70;;;6.10;;
49758;SDS011;35654;46.080;11.118;2022-12-07T09:19:40;14.37;;;5.77;;
49758;SDS011;35654;46.080;11.118;2022-12-07T09:24:32;13.00;;;5.80;;
49758;SDS011;35654;46.080;11.118;2022-12-07T09:26:58;12.30;;;5.37;;
49758;SDS011;35654;46.080;11.118;2022-12-07T09:29:24;11.07;;;5.30;;
49758;SDS011;35654;46.080;11.118;2022-12-07T09:31:50;8.97;;;4.50;;
49758;SDS011;35654;46.080;11.118;2022-12-07T09:34:16;15.98;;;5.68;;
49758;SDS011;35654;46.080;11.118;2022-12-07T09:36:45;9.88;;;4.97;;
49758;SDS011;35654;46.080;11.118;2022-12-07T09:39:11;13.27;;;5.73;;
49758;SDS011;35654;46.080;11.118;2022-12-07T09:41:40;17.83;;;5.93;;
49758;SDS011;35654;46.080;11.118;2022-12-07T09:44:28;11.10;;;5.70;;
49758;SDS011;35654;46.080;11.118;2022-12-07T09:46:53;10.63;;;5.03;;
49758;SDS011;35654;46.080;11.118;2022-12-07T09:49:22;11.18;;;5.22;;
49758;SDS011;35654;46.080;11.118;2022-12-07T09:54:41;11.32;;;5.05;;
49758;SDS011;35654;46.080;11.118;2022-12-07T09:57:10;22.55;;;4.95;;
49758;SDS011;35654;46.080;11.118;2022-12-07T09:59:37;7.10;;;3.90;;
49758;SDS011;35654;46.080;11.118;2022-12-07T10:02:39;9.25;;;4.18;;
49758;SDS011;35654;46.080;11.118;2022-12-07T10:05:05;11.40;;;4.38;;
49758;SDS011;35654;46.080;11.118;2022-12-07T10:07:35;7.63;;;4.32;;
49758;SDS011;35654;46.080;11.118;2022-12-07T10:10:02;12.03;;;4.97;;
49758;SDS011;35654;46.080;11.118;2022-12-07T10:12:29;9.88;;;4.78;;
49758;SDS011;35654;46.080;11.118;2022-12-07T10:15:02;10.77;;;4.80;;
49758;SDS011;35654;46.080;11.118;2022-12-07T10:17:32;8.25;;;4.20;;
49758;SDS011;35654;46.080;11.118;2022-12-07T10:22:38;5.80;;;3.22;;
49758;SDS011;35654;46.080;11.118;2022-12-07T10:25:20;8.10;;;3.25;;
49758;SDS011;35654;46.080;11.118;2022-12-07T10:33:35;6.03;;;3.00;;
49758;SDS011;35654;46.080;11.118;2022-12-07T10:36:24;6.45;;;2.60;;
49758;SDS011;35654;46.080;11.118;2022-12-07T10:38:58;4.82;;;3.00;;
49758;SDS011;35654;46.080;11.118;2022-12-07T10:41:26;5.95;;;3.05;;
49758;SDS011;35654;46.080;11.118;2022-12-07T10:43:53;6.93;;;3.15;;
49758;SDS011;35654;46.080;11.118;2022-12-07T10:51:46;15.57;;;4.10;;
49758;SDS011;35654;46.080;11.118;2022-12-07T10:57:42;7.18;;;3.00;;
49758;SDS011;35654;46.080;11.118;2022-12-07T11:00:25;7.20;;;3.38;;
49758;SDS011;35654;46.080;11.118;2022-12-07T11:03:17;6.72;;;3.15;;
49758;SDS011;35654;46.080;11.118;2022-12-07T11:05:59;8.60;;;3.57;;
49758;SDS011;35654;46.080;11.118;2022-12-07T11:11:36;5.72;;;3.05;;
49758;SDS011;35654;46.080;11.118;2022-12-07T11:14:40;7.75;;;3.47;;
49758;SDS011;35654;46.080;11.118;2022-12-07T11:34:43;3.97;;;2.70;;
49758;SDS011;35654;46.080;11.118;2022-12-07T11:37:23;6.25;;;3.03;;
49758;SDS011;35654;46.080;11.118;2022-12-07T11:40:31;8.27;;;3.22;;
49758;SDS011;35654;46.080;11.118;2022-12-07T11:45:26;10.43;;;4.15;;
49758;SDS011;35654;46.080;11.118;2022-12-07T11:47:54;8.60;;;2.97;;
49758;SDS011;35654;46.080;11.118;2022-12-07T11:50:56;4.88;;;2.85;;
49758;SDS011;35654;46.080;11.118;2022-12-07T11:53:33;11.20;;;3.40;;
49758;SDS011;35654;46.080;11.118;2022-12-07T11:56:16;6.22;;;3.75;;
49758;SDS011;35654;46.080;11.118;2022-12-07T12:04:02;6.07;;;2.95;;
49758;SDS011;35654;46.080;11.118;2022-12-07T12:14:40;4.90;;;3.40;;
49758;SDS011;35654;46.080;11.118;2022-12-07T12:20:37;7.90;;;3.20;;
49758;SDS011;35654;46.080;11.118;2022-12-07T12:25:52;14.30;;;3.55;;
49758;SDS011;35654;46.080;11.118;2022-12-07T12:33:43;4.93;;;3.10;;
49758;SDS011;35654;46.080;11.118;2022-12-07T12:54:37;4.45;;;2.60;;
49758;SDS011;35654;46.080;11.118;2022-12-07T12:57:07;5.05;;;2.70;;
49758;SDS011;35654;46.080;11.118;2022-12-07T12:59:36;4.63;;;2.70;;
49758;SDS011;35654;46.080;11.118;2022-12-07T13:10:54;6.68;;;3.00;;
49758;SDS011;35654;46.080;11.118;2022-12-07T13:18:24;9.82;;;3.00;;
49758;SDS011;35654;46.080;11.118;2022-12-07T13:23:37;10.32;;;3.40;;
49758;SDS011;35654;46.080;11.118;2022-12-07T13:28:46;9.02;;;3.10;;
49758;SDS011;35654;46.080;11.118;2022-12-07T13:33:57;5.50;;;3.20;;
49758;SDS011;35654;46.080;11.118;2022-12-07T13:36:24;11.15;;;3.55;;
49758;SDS011;35654;46.080;11.118;2022-12-07T13:39:00;7.65;;;3.80;;
49758;SDS011;35654;46.080;11.118;2022-12-07T13:41:54;10.98;;;4.55;;
49758;SDS011;35654;46.080;11.118;2022-12-07T13:44:22;8.38;;;3.58;;
49758;SDS011;35654;46.080;11.118;2022-12-07T13:51:48;11.27;;;4.13;;
49758;SDS011;35654;46.080;11.118;2022-12-07T13:54:14;6.63;;;3.47;;
49758;SDS011;35654;46.080;11.118;2022-12-07T13:56:39;11.70;;;3.78;;
49758;SDS011;35654;46.080;11.118;2022-12-07T13:59:24;7.45;;;3.55;;
49758;SDS011;35654;46.080;11.118;2022-12-07T14:01:52;11.00;;;3.78;;
49758;SDS011;35654;46.080;11.118;2022-12-07T14:06:52;8.13;;;3.88;;
49758;SDS011;35654;46.080;11.118;2022-12-07T14:09:19;7.93;;;3.87;;
49758;SDS011;35654;46.080;11.118;2022-12-07T14:11:50;9.38;;;4.10;;
49758;SDS011;35654;46.080;11.118;2022-12-07T14:14:19;11.95;;;3.63;;
49758;SDS011;35654;46.080;11.118;2022-12-07T14:17:01;14.10;;;6.15;;
49758;SDS011;35654;46.080;11.118;2022-12-07T14:19:56;12.57;;;4.75;;
49758;SDS011;35654;46.080;11.118;2022-12-07T14:24:50;14.90;;;4.60;;
49758;SDS011;35654;46.080;11.118;2022-12-07T14:27:23;8.23;;;4.30;;
49758;SDS011;35654;46.080;11.118;2022-12-07T14:29:55;9.70;;;4.40;;
49758;SDS011;35654;46.080;11.118;2022-12-07T14:32:25;14.55;;;5.20;;
49758;SDS011;35654;46.080;11.118;2022-12-07T14:34:59;16.17;;;5.03;;
49758;SDS011;35654;46.080;11.118;2022-12-07T14:37:35;12.25;;;4.80;;
49758;SDS011;35654;46.080;11.118;2022-12-07T14:40:02;16.83;;;5.82;;
49758;SDS011;35654;46.080;11.118;2022-12-07T14:42:30;12.05;;;5.03;;
49758;SDS011;35654;46.080;11.118;2022-12-07T14:44:57;12.13;;;5.35;;
49758;SDS011;35654;46.080;11.118;2022-12-07T14:47:24;18.65;;;5.88;;
49758;SDS011;35654;46.080;11.118;2022-12-07T14:49:50;14.82;;;5.32;;
49758;SDS011;35654;46.080;11.118;2022-12-07T14:52:17;18.13;;;6.43;;
49758;SDS011;35654;46.080;11.118;2022-12-07T14:54:55;16.77;;;8.45;;
49758;SDS011;35654;46.080;11.118;2022-12-07T14:57:20;12.57;;;6.23;;
49758;SDS011;35654;46.080;11.118;2022-12-07T14:59:46;27.90;;;6.37;;
49758;SDS011;35654;46.080;11.118;2022-12-07T15:02:12;11.07;;;6.27;;
49758;SDS011;35654;46.080;11.118;2022-12-07T15:04:38;23.42;;;7.30;;
49758;SDS011;35654;46.080;11.118;2022-12-07T15:07:05;11.63;;;5.00;;
49758;SDS011;35654;46.080;11.118;2022-12-07T15:09:34;9.82;;;4.93;;
49758;SDS011;35654;46.080;11.118;2022-12-07T15:12:00;15.60;;;5.47;;
49758;SDS011;35654;46.080;11.118;2022-12-07T15:14:25;14.33;;;5.43;;
49758;SDS011;35654;46.080;11.118;2022-12-07T15:16:51;22.23;;;5.63;;
49758;SDS011;35654;46.080;11.118;2022-12-07T15:19:17;15.67;;;5.80;;
49758;SDS011;35654;46.080;11.118;2022-12-07T15:21:47;15.68;;;5.85;;
49758;SDS011;35654;46.080;11.118;2022-12-07T15:24:13;15.57;;;6.60;;
49758;SDS011;35654;46.080;11.118;2022-12-07T15:26:38;10.07;;;6.60;;
49758;SDS011;35654;46.080;11.118;2022-12-07T15:29:05;17.15;;;5.68;;
49758;SDS011;35654;46.080;11.118;2022-12-07T15:31:31;15.85;;;5.78;;
49758;SDS011;35654;46.080;11.118;2022-12-07T15:33:57;14.18;;;5.47;;
49758;SDS011;35654;46.080;11.118;2022-12-07T15:36:25;15.93;;;6.53;;
49758;SDS011;35654;46.080;11.118;2022-12-07T15:38:52;29.90;;;8.57;;
49758;SDS011;35654;46.080;11.118;2022-12-07T15:41:19;17.40;;;7.00;;
49758;SDS011;35654;46.080;11.118;2022-12-07T15:43:44;25.20;;;7.70;;
49758;SDS011;35654;46.080;11.118;2022-12-07T15:46:30;18.98;;;5.43;;
49758;SDS011;35654;46.080;11.118;2022-12-07T15:48:57;9.65;;;5.10;;
49758;SDS011;35654;46.080;11.118;2022-12-07T15:51:22;16.57;;;6.07;;
49758;SDS011;35654;46.080;11.118;2022-12-07T15:53:48;19.57;;;6.10;;
49758;SDS011;35654;46.080;11.118;2022-12-07T15:56:13;13.30;;;5.57;;
49758;SDS011;35654;46.080;11.118;2022-12-07T15:58:38;14.17;;;6.37;;
49758;SDS011;35654;46.080;11.118;2022-12-07T16:01:14;16.70;;;6.47;;
49758;SDS011;35654;46.080;11.118;2022-12-07T16:06:07;23.92;;;7.78;;
49758;SDS011;35654;46.080;11.118;2022-12-07T16:08:33;18.27;;;7.00;;
49758;SDS011;35654;46.080;11.118;2022-12-07T16:10:58;21.40;;;6.77;;
49758;SDS011;35654;46.080;11.118;2022-12-07T16:13:24;15.10;;;6.03;;
49758;SDS011;35654;46.080;11.118;2022-12-07T16:15:49;16.20;;;6.70;;
49758;SDS011;35654;46.080;11.118;2022-12-07T16:18:15;14.67;;;6.00;;
49758;SDS011;35654;46.080;11.118;2022-12-07T16:20:40;18.33;;;7.00;;
49758;SDS011;35654;46.080;11.118;2022-12-07T16:23:06;17.57;;;7.70;;
49758;SDS011;35654;46.080;11.118;2022-12-07T16:25:32;24.05;;;8.50;;
49758;SDS011;35654;46.080;11.118;2022-12-07T16:27:58;21.60;;;9.43;;
49758;SDS011;35654;46.080;11.118;2022-12-07T16:30:23;21.37;;;8.87;;
49758;SDS011;35654;46.080;11.118;2022-12-07T16:32:50;19.20;;;9.52;;
49758;SDS011;35654;46.080;11.118;2022-12-07T16:35:16;22.80;;;9.30;;
49758;SDS011;35654;46.080;11.118;2022-12-07T16:37:42;23.10;;;10.03;;
49758;SDS011;35654;46.080;11.118;2022-12-07T16:40:09;20.35;;;8.50;;
49758;SDS011;35654;46.080;11.118;2022-12-07T16:42:35;19.67;;;9.68;;
49758;SDS011;35654;46.080;11.118;2022-12-07T16:45:01;23.33;;;9.70;;
49758;SDS011;35654;46.080;11.118;2022-12-07T16:47:27;19.17;;;9.93;;
49758;SDS011;35654;46.080;11.118;2022-12-07T16:49:53;18.50;;;10.47;;
49758;SDS011;35654;46.080;11.118;2022-12-07T16:52:19;27.87;;;10.57;;
49758;SDS011;35654;46.080;11.118;2022-12-07T16:57:11;21.27;;;10.32;;
49758;SDS011;35654;46.080;11.118;2022-12-07T16:59:36;29.03;;;10.50;;
49758;SDS011;35654;46.080;11.118;2022-12-07T17:02:01;32.43;;;11.07;;
49758;SDS011;35654;46.080;11.118;2022-12-07T17:04:27;24.67;;;10.03;;
49758;SDS011;35654;46.080;11.118;2022-12-07T17:06:53;26.67;;;11.17;;
49758;SDS011;35654;46.080;11.118;2022-12-07T17:09:19;26.00;;;10.03;;
49758;SDS011;35654;46.080;11.118;2022-12-07T17:11:44;20.50;;;9.33;;
49758;SDS011;35654;46.080;11.118;2022-12-07T17:14:10;22.58;;;9.18;;
49758;SDS011;35654;46.080;11.118;2022-12-07T17:16:54;18.65;;;8.20;;
49758;SDS011;35654;46.080;11.118;2022-12-07T17:19:20;20.47;;;8.70;;
49758;SDS011;35654;46.080;11.118;2022-12-07T17:21:45;19.77;;;9.80;;
49758;SDS011;35654;46.080;11.118;2022-12-07T17:24:12;26.07;;;12.40;;
49758;SDS011;35654;46.080;11.118;2022-12-07T17:26:39;35.35;;;13.63;;